Time;durP1;ratioP1;P1;durP2;ratioP2;P2;SDS_P1;SDS_P2;PMS_P1;PMS_P2;Temp;Humidity;BMP_temperature;BMP_pressure;BME280_temperature;BME280_humidity;BME280_pressure;Samples;Min_cycle;Max_cycle;Signal;HPM_P1;HPM_P2
2022/11/28 00:01:58;;;;;;;0.52;0.30;;;;;;;;;;4144405;28;20132;-39
2022/11/28 00:03:59;;;;;;;0.30;0.20;;;;;;;;;;4136259;28;20398;-39
2022/11/28 00:06:05;;;;;;;0.40;0.40;;;;;;;;;;4139743;28;20125;-39
2022/11/28 00:08:06;;;;;;;0.50;0.50;;;;;;;;;;4142981;28;20053;-39
2022/11/28 00:10:09;;;;;;;0.20;0.20;;;;;;;;;;4132954;28;20109;-39
2022/11/28 00:12:11;;;;;;;0.40;0.20;;;;;;;;;;4141952;28;20046;-38
2022/11/28 00:14:12;;;;;;;0.30;0.30;;;;;;;;;;4138702;28;20049;-39
2022/11/28 00:16:20;;;;;;;0.30;0.30;;;;;;;;;;4147386;28;20053;-39
2022/11/28 00:18:21;;;;;;;0.30;0.30;;;;;;;;;;4134046;28;20065;-40
2022/11/28 00:20:22;;;;;;;0.20;0.20;;;;;;;;;;4143563;28;20054;-39
2022/11/28 00:22:26;;;;;;;0.30;0.30;;;;;;;;;;4144114;28;20426;-39
2022/11/28 00:24:27;;;;;;;0.35;0.28;;;;;;;;;;4136936;28;20109;-39
2022/11/28 00:26:39;;;;;;;0.68;0.50;;;;;;;;;;4143258;28;20053;-39
2022/11/28 00:28:41;;;;;;;0.45;0.38;;;;;;;;;;4118861;28;20525;-38
2022/11/28 00:30:42;;;;;;;0.40;0.22;;;;;;;;;;4139229;28;20058;-39
2022/11/28 00:32:43;;;;;;;0.30;0.30;;;;;;;;;;4136514;28;20105;-39
2022/11/28 00:34:45;;;;;;;0.52;0.50;;;;;;;;;;4144583;28;20057;-39
2022/11/28 00:36:46;;;;;;;0.30;0.30;;;;;;;;;;4134629;28;20066;-39
2022/11/28 00:38:48;;;;;;;0.40;0.40;;;;;;;;;;4140399;28;20474;-38
2022/11/28 00:41:00;;;;;;;0.50;0.40;;;;;;;;;;4141078;28;20054;-39
2022/11/28 00:43:01;;;;;;;0.57;0.50;;;;;;;;;;4129567;28;20129;-40
2022/11/28 00:45:03;;;;;;;0.30;0.30;;;;;;;;;;4135448;28;20057;-40
2022/11/28 00:47:04;;;;;;;0.35;0.35;;;;;;;;;;4147026;28;20057;-40
2022/11/28 00:49:06;;;;;;;0.30;0.30;;;;;;;;;;4143854;28;20117;-39
2022/11/28 00:51:12;;;;;;;0.60;0.40;;;;;;;;;;4130669;28;20097;-39
2022/11/28 00:53:13;;;;;;;0.40;0.40;;;;;;;;;;4143104;28;20050;-39
2022/11/28 00:55:15;;;;;;;0.20;0.20;;;;;;;;;;4138532;28;20061;-38
2022/11/28 00:57:16;;;;;;;0.30;0.30;;;;;;;;;;4146850;28;20108;-39
2022/11/28 00:59:18;;;;;;;0.55;0.52;;;;;;;;;;4133192;28;20069;-38
2022/11/28 01:01:23;;;;;;;0.43;0.30;;;;;;;;;;4128963;28;20081;-38
2022/11/28 01:03:25;;;;;;;0.45;0.32;;;;;;;;;;4137650;28;20075;-39
2022/11/28 01:05:27;;;;;;;0.40;0.30;;;;;;;;;;4136760;28;20147;-40
2022/11/28 01:07:28;;;;;;;0.40;0.40;;;;;;;;;;4130381;28;20109;-40
2022/11/28 01:09:29;;;;;;;0.40;0.30;;;;;;;;;;4130358;28;20458;-39
2022/11/28 01:11:31;;;;;;;0.40;0.40;;;;;;;;;;4150030;28;20161;-39
2022/11/28 01:13:32;;;;;;;0.40;0.30;;;;;;;;;;4130530;28;20094;-40
2022/11/28 01:15:34;;;;;;;0.30;0.30;;;;;;;;;;4142513;28;20054;-39
2022/11/28 01:17:35;;;;;;;0.57;0.30;;;;;;;;;;4144545;28;20119;-39
2022/11/28 01:19:37;;;;;;;0.40;0.32;;;;;;;;;;4135273;28;20061;-39
2022/11/28 01:21:39;;;;;;;0.30;0.28;;;;;;;;;;4146057;28;20080;-38
2022/11/28 01:23:40;;;;;;;0.52;0.40;;;;;;;;;;4145620;28;20109;-39
2022/11/28 01:25:41;;;;;;;0.65;0.40;;;;;;;;;;4146116;28;20054;-38
2022/11/28 01:27:42;;;;;;;0.40;0.40;;;;;;;;;;4145426;28;20053;-39
2022/11/28 01:29:43;;;;;;;0.40;0.40;;;;;;;;;;4146783;28;20053;-39
2022/11/28 01:31:45;;;;;;;0.32;0.30;;;;;;;;;;4146417;28;20069;-39
2022/11/28 01:33:47;;;;;;;0.30;0.30;;;;;;;;;;4146137;28;20505;-39
2022/11/28 01:35:56;;;;;;;0.40;0.30;;;;;;;;;;4145070;28;20120;-40
2022/11/28 01:37:57;;;;;;;0.45;0.30;;;;;;;;;;4161130;28;20081;-40
2022/11/28 01:39:58;;;;;;;0.55;0.43;;;;;;;;;;4146267;28;20413;-38
2022/11/28 01:41:59;;;;;;;0.52;0.40;;;;;;;;;;4145903;28;20049;-38
2022/11/28 01:44:07;;;;;;;0.45;0.40;;;;;;;;;;4133077;28;20054;-39
2022/11/28 01:46:09;;;;;;;0.40;0.30;;;;;;;;;;4128706;28;20058;-39
2022/11/28 01:48:13;;;;;;;0.95;0.50;;;;;;;;;;4130664;28;20058;-38
2022/11/28 01:50:15;;;;;;;0.47;0.40;;;;;;;;;;4129944;28;20054;-39
2022/11/28 01:52:18;;;;;;;0.50;0.38;;;;;;;;;;4128343;28;20059;-39
2022/11/28 01:54:21;;;;;;;0.40;0.40;;;;;;;;;;4152766;28;20583;-39
2022/11/28 01:56:26;;;;;;;0.40;0.40;;;;;;;;;;4135028;28;20054;-39
2022/11/28 01:58:27;;;;;;;0.55;0.45;;;;;;;;;;4113889;28;20055;-39
2022/11/28 02:00:28;;;;;;;0.32;0.32;;;;;;;;;;4140914;28;20117;-39
2022/11/28 02:02:36;;;;;;;0.52;0.50;;;;;;;;;;4137181;28;20473;-39
2022/11/28 02:04:38;;;;;;;0.55;0.43;;;;;;;;;;4149652;28;20054;-39
2022/11/28 02:06:41;;;;;;;0.30;0.30;;;;;;;;;;4157535;28;20104;-39
2022/11/28 02:08:42;;;;;;;0.47;0.45;;;;;;;;;;4134364;28;20054;-39
2022/11/28 02:11:04;;;;;;;0.52;0.40;;;;;;;;;;4138416;28;20065;-38
2022/11/28 02:13:09;;;;;;;0.57;0.45;;;;;;;;;;4143144;28;20494;-40
2022/11/28 02:15:37;;;;;;;0.30;0.30;;;;;;;;;;4161191;28;20049;-40
2022/11/28 02:18:05;;;;;;;0.28;0.25;;;;;;;;;;4150460;28;20501;-41
2022/11/28 02:20:45;;;;;;;0.40;0.30;;;;;;;;;;4132176;28;20057;-39
2022/11/28 02:23:14;;;;;;;0.57;0.38;;;;;;;;;;4134038;28;20089;-38
2022/11/28 02:25:34;;;;;;;0.50;0.40;;;;;;;;;;4117268;28;20054;-38
2022/11/28 02:27:49;;;;;;;;;;;;;;;;;;4130278;28;20054;-39
2022/11/28 02:29:57;;;;;;;0.28;0.28;;;;;;;;;;4147460;28;20019;-39
2022/11/28 02:32:36;;;;;;;0.80;0.40;;;;;;;;;;4139037;28;20391;-40
2022/11/28 02:34:44;;;;;;;0.55;0.32;;;;;;;;;;4125479;28;20050;-40
2022/11/28 02:36:49;;;;;;;0.70;0.47;;;;;;;;;;4134710;28;20422;-39
2022/11/28 02:39:06;;;;;;;0.43;0.40;;;;;;;;;;4128560;28;20428;-38
2022/11/28 02:41:30;;;;;;;0.50;0.30;;;;;;;;;;4143195;28;20049;-38
2022/11/28 02:43:40;;;;;;;0.45;0.40;;;;;;;;;;4152103;28;20103;-40
2022/11/28 02:45:47;;;;;;;0.75;0.40;;;;;;;;;;4146017;28;20058;-40
2022/11/28 02:47:54;;;;;;;0.47;0.40;;;;;;;;;;4145836;28;20125;-38
2022/11/28 02:50:06;;;;;;;0.50;0.50;;;;;;;;;;4154136;28;20456;-40
2022/11/28 02:52:21;;;;;;;0.40;0.40;;;;;;;;;;4131115;28;20170;-39
2022/11/28 02:54:23;;;;;;;0.93;0.40;;;;;;;;;;4161891;28;20555;-38
2022/11/28 02:56:25;;;;;;;0.30;0.30;;;;;;;;;;4138404;28;20053;-38
2022/11/28 02:58:26;;;;;;;0.80;0.40;;;;;;;;;;4140653;28;20403;-40
2022/11/28 03:00:33;;;;;;;0.63;0.55;;;;;;;;;;4144543;28;20103;-39
2022/11/28 03:02:34;;;;;;;0.30;0.30;;;;;;;;;;4131951;28;20051;-38
2022/11/28 03:04:50;;;;;;;0.63;0.50;;;;;;;;;;4115474;28;20079;-39
2022/11/28 03:07:12;;;;;;;0.43;0.40;;;;;;;;;;4155799;28;20057;-39
2022/11/28 03:09:19;;;;;;;0.60;0.38;;;;;;;;;;4131105;28;20062;-39
2022/11/28 03:11:45;;;;;;;0.47;0.43;;;;;;;;;;4148044;28;20050;-38
2022/11/28 03:13:55;;;;;;;0.40;0.40;;;;;;;;;;4148772;28;20136;-39
2022/11/28 03:16:21;;;;;;;0.38;0.35;;;;;;;;;;4131424;28;20054;-39
2022/11/28 03:18:25;;;;;;;0.47;0.40;;;;;;;;;;4132410;28;20054;-39
2022/11/28 03:20:32;;;;;;;0.40;0.40;;;;;;;;;;4146170;28;20058;-39
2022/11/28 03:22:52;;;;;;;0.85;0.68;;;;;;;;;;4130578;28;20046;-39
2022/11/28 03:25:02;;;;;;;0.28;0.28;;;;;;;;;;4148407;28;20061;-39
2022/11/28 03:27:35;;;;;;;0.40;0.40;;;;;;;;;;4129585;28;20105;-38
2022/11/28 03:29:40;;;;;;;0.40;0.30;;;;;;;;;;4140699;28;20521;-40
2022/11/28 03:31:56;;;;;;;0.43;0.43;;;;;;;;;;4151235;28;20100;-39
2022/11/28 03:33:58;;;;;;;0.43;0.40;;;;;;;;;;4115063;28;20058;-39
2022/11/28 03:36:05;;;;;;;0.70;0.35;;;;;;;;;;4131499;28;20081;-39
2022/11/28 03:38:12;;;;;;;0.68;0.50;;;;;;;;;;4125632;28;20101;-39
2022/11/28 03:40:19;;;;;;;0.40;0.40;;;;;;;;;;4161225;28;20460;-39
2022/11/28 03:42:25;;;;;;;0.30;0.30;;;;;;;;;;4157514;28;20104;-38
2022/11/28 03:44:29;;;;;;;0.30;0.30;;;;;;;;;;4155633;28;20069;-39
2022/11/28 03:46:34;;;;;;;0.60;0.30;;;;;;;;;;4130376;28;20051;-39
2022/11/28 03:48:42;;;;;;;0.43;0.43;;;;;;;;;;4144893;28;20417;-39
2022/11/28 03:51:07;;;;;;;0.57;0.50;;;;;;;;;;4138011;28;20081;-39
2022/11/28 03:53:13;;;;;;;0.60;0.50;;;;;;;;;;4124839;28;20580;-39
2022/11/28 03:55:26;;;;;;;0.55;0.38;;;;;;;;;;4146789;28;20057;-39
2022/11/28 03:57:38;;;;;;;0.50;0.30;;;;;;;;;;4122540;28;20198;-39
2022/11/28 03:59:46;;;;;;;0.50;0.50;;;;;;;;;;4162926;28;20115;-39
2022/11/28 04:01:52;;;;;;;0.45;0.38;;;;;;;;;;4130322;28;20058;-39
2022/11/28 04:04:03;;;;;;;0.30;0.30;;;;;;;;;;4138487;28;20053;-39
2022/11/28 04:06:15;;;;;;;0.52;0.52;;;;;;;;;;4129837;28;20280;-38
2022/11/28 04:08:23;;;;;;;0.32;0.30;;;;;;;;;;4132979;28;20093;-39
2022/11/28 04:11:05;;;;;;;0.38;0.30;;;;;;;;;;4162585;28;20155;-39
2022/11/28 04:13:17;;;;;;;0.52;0.45;;;;;;;;;;4108679;28;20486;-40
2022/11/28 04:16:13;;;;;;;0.32;0.32;;;;;;;;;;4137722;28;20054;-39
2022/11/28 04:18:29;;;;;;;0.43;0.40;;;;;;;;;;4097434;29;20059;-38
2022/11/28 04:20:35;;;;;;;0.45;0.40;;;;;;;;;;4105804;28;20050;-40
2022/11/28 04:22:51;;;;;;;0.40;0.40;;;;;;;;;;4142860;28;20116;-39
2022/11/28 04:24:57;;;;;;;0.65;0.30;;;;;;;;;;4133910;28;20054;-39
2022/11/28 04:27:01;;;;;;;0.45;0.40;;;;;;;;;;4113965;28;20471;-39
2022/11/28 04:29:07;;;;;;;0.50;0.50;;;;;;;;;;4157207;28;20127;-39
2022/11/28 04:31:08;;;;;;;0.57;0.50;;;;;;;;;;4147186;28;20112;-38
2022/11/28 04:33:12;;;;;;;0.50;0.40;;;;;;;;;;4142939;28;20061;-39
2022/11/28 04:35:18;;;;;;;0.38;0.38;;;;;;;;;;4105617;28;20062;-39
2022/11/28 04:37:21;;;;;;;0.45;0.45;;;;;;;;;;4130837;28;20061;-39
2022/11/28 04:39:24;;;;;;;0.40;0.40;;;;;;;;;;4129966;28;20061;-39
2022/11/28 04:41:38;;;;;;;0.52;0.52;;;;;;;;;;4151019;28;20049;-38
2022/11/28 04:43:45;;;;;;;0.22;0.22;;;;;;;;;;4152820;28;20085;-38
2022/11/28 04:45:53;;;;;;;0.30;0.30;;;;;;;;;;4136523;28;20058;-40
2022/11/28 04:47:55;;;;;;;0.55;0.45;;;;;;;;;;4135243;28;20050;-39
2022/11/28 04:49:56;;;;;;;0.40;0.38;;;;;;;;;;4140134;28;20078;-39
2022/11/28 04:52:09;;;;;;;0.60;0.50;;;;;;;;;;4113234;28;20106;-40
2022/11/28 04:54:15;;;;;;;0.50;0.40;;;;;;;;;;4126561;28;20105;-38
2022/11/28 04:56:20;;;;;;;0.50;0.40;;;;;;;;;;4118689;28;20062;-39
2022/11/28 04:58:26;;;;;;;0.30;0.30;;;;;;;;;;4139815;28;20445;-38
2022/11/28 05:00:28;;;;;;;0.30;0.30;;;;;;;;;;4134127;28;20124;-39
2022/11/28 05:02:30;;;;;;;0.50;0.50;;;;;;;;;;4126382;28;20054;-39
2022/11/28 05:04:34;;;;;;;0.38;0.38;;;;;;;;;;4130940;28;20054;-39
2022/11/28 05:06:36;;;;;;;0.22;0.22;;;;;;;;;;4112891;28;20062;-40
2022/11/28 05:08:37;;;;;;;0.40;0.40;;;;;;;;;;4130775;28;20054;-39
2022/11/28 05:10:38;;;;;;;0.60;0.45;;;;;;;;;;4143545;28;20054;-39
2022/11/28 05:12:40;;;;;;;0.43;0.43;;;;;;;;;;4135189;28;20053;-38
2022/11/28 05:14:41;;;;;;;0.68;0.43;;;;;;;;;;4138574;28;20518;-39
2022/11/28 05:16:42;;;;;;;0.40;0.40;;;;;;;;;;4141783;28;20065;-39
2022/11/28 05:18:43;;;;;;;0.80;0.50;;;;;;;;;;4147969;28;20057;-39
2022/11/28 05:20:45;;;;;;;0.63;0.50;;;;;;;;;;4124466;28;20051;-39
2022/11/28 05:22:46;;;;;;;0.60;0.50;;;;;;;;;;4120543;28;20066;-39
2022/11/28 05:24:48;;;;;;;0.70;0.40;;;;;;;;;;4143392;28;20053;-38
2022/11/28 05:26:49;;;;;;;0.55;0.40;;;;;;;;;;4132689;28;20050;-40
2022/11/28 05:28:51;;;;;;;0.40;0.40;;;;;;;;;;4129185;28;20585;-38
2022/11/28 05:30:57;;;;;;;0.60;0.50;;;;;;;;;;4146433;28;20046;-38
2022/11/28 05:32:58;;;;;;;0.52;0.50;;;;;;;;;;4136516;28;20054;-39
2022/11/28 05:34:59;;;;;;;1.17;0.75;;;;;;;;;;4143438;28;20567;-40
2022/11/28 05:37:01;;;;;;;0.40;0.40;;;;;;;;;;4147612;28;20061;-39
2022/11/28 05:39:02;;;;;;;0.32;0.30;;;;;;;;;;4140653;28;20386;-39
2022/11/28 05:41:04;;;;;;;0.75;0.50;;;;;;;;;;4139009;28;20054;-39
2022/11/28 05:43:05;;;;;;;0.40;0.40;;;;;;;;;;4132941;28;20117;-40
2022/11/28 05:45:07;;;;;;;1.48;0.68;;;;;;;;;;4129881;28;20058;-40
2022/11/28 05:47:08;;;;;;;0.95;0.55;;;;;;;;;;4135136;28;20501;-39
2022/11/28 05:49:09;;;;;;;0.30;0.30;;;;;;;;;;4136963;28;20062;-39
2022/11/28 05:51:11;;;;;;;0.70;0.50;;;;;;;;;;4140903;28;20097;-39
2022/11/28 05:53:13;;;;;;;0.50;0.50;;;;;;;;;;4132611;28;20061;-38
2022/11/28 05:55:14;;;;;;;0.30;0.30;;;;;;;;;;4142015;28;20113;-39
2022/11/28 05:57:15;;;;;;;0.30;0.30;;;;;;;;;;4119745;28;20054;-40
2022/11/28 05:59:17;;;;;;;0.93;0.50;;;;;;;;;;4128541;28;20395;-40
2022/11/28 06:01:22;;;;;;;0.55;0.52;;;;;;;;;;4134984;28;20054;-40
2022/11/28 06:03:23;;;;;;;0.80;0.40;;;;;;;;;;4143270;28;20053;-39
2022/11/28 06:05:25;;;;;;;0.40;0.30;;;;;;;;;;4143179;28;20054;-39
2022/11/28 06:07:26;;;;;;;0.40;0.40;;;;;;;;;;4143222;28;20058;-39
2022/11/28 06:09:27;;;;;;;0.32;0.32;;;;;;;;;;4143510;28;20120;-39
2022/11/28 06:11:30;;;;;;;0.52;0.43;;;;;;;;;;4140843;28;20054;-39
2022/11/28 06:13:31;;;;;;;0.60;0.47;;;;;;;;;;4133462;28;20104;-39
2022/11/28 06:15:33;;;;;;;0.30;0.30;;;;;;;;;;4135136;28;20461;-40
2022/11/28 06:17:34;;;;;;;0.40;0.40;;;;;;;;;;4139293;28;20506;-39
2022/11/28 06:19:36;;;;;;;0.55;0.40;;;;;;;;;;4141769;28;20092;-39
2022/11/28 06:21:38;;;;;;;0.22;0.22;;;;;;;;;;4128445;28;20073;-38
2022/11/28 06:23:39;;;;;;;0.30;0.30;;;;;;;;;;4149377;28;20405;-41
2022/11/28 06:25:40;;;;;;;0.47;0.40;;;;;;;;;;4130731;28;20058;-50
2022/11/28 06:27:42;;;;;;;1.02;0.38;;;;;;;;;;4144149;28;20176;-51
2022/11/28 06:29:43;;;;;;;0.40;0.32;;;;;;;;;;4141783;28;20058;-47
2022/11/28 06:31:45;;;;;;;0.40;0.30;;;;;;;;;;4140624;28;20058;-48
2022/11/28 06:33:46;;;;;;;0.55;0.50;;;;;;;;;;4149701;28;20065;-45
2022/11/28 06:35:48;;;;;;;0.30;0.30;;;;;;;;;;4135480;28;20058;-47
2022/11/28 06:37:49;;;;;;;0.47;0.40;;;;;;;;;;4146304;28;20112;-49
2022/11/28 06:39:50;;;;;;;0.30;0.30;;;;;;;;;;4143285;28;20053;-45
2022/11/28 06:41:52;;;;;;;0.43;0.40;;;;;;;;;;4142372;28;20537;-47
2022/11/28 06:43:54;;;;;;;0.52;0.43;;;;;;;;;;4145472;28;20053;-49
2022/11/28 06:45:56;;;;;;;0.75;0.68;;;;;;;;;;4140927;28;20062;-49
2022/11/28 06:47:57;;;;;;;0.38;0.38;;;;;;;;;;4143467;28;20054;-47
2022/11/28 06:49:58;;;;;;;0.30;0.30;;;;;;;;;;4141976;28;20045;-47
2022/11/28 06:51:59;;;;;;;3.90;0.70;;;;;;;;;;4136868;28;20055;-46
2022/11/28 06:54:01;;;;;;;0.60;0.40;;;;;;;;;;4153505;28;20497;-47
2022/11/28 06:56:07;;;;;;;1.55;0.47;;;;;;;;;;4143755;28;20068;-51
2022/11/28 06:58:08;;;;;;;0.80;0.38;;;;;;;;;;4138429;28;20136;-51
2022/11/28 07:00:10;;;;;;;0.70;0.52;;;;;;;;;;4123830;28;20514;-48
2022/11/28 07:02:12;;;;;;;0.50;0.35;;;;;;;;;;4141866;28;20486;-50
2022/11/28 07:04:13;;;;;;;0.57;0.50;;;;;;;;;;4131615;28;20064;-49
2022/11/28 07:06:17;;;;;;;0.75;0.50;;;;;;;;;;4139749;28;20203;-47
2022/11/28 07:08:18;;;;;;;0.68;0.40;;;;;;;;;;4111296;28;20062;-54
2022/11/28 07:10:21;;;;;;;0.52;0.50;;;;;;;;;;4135213;28;20518;-50
2022/11/28 07:12:22;;;;;;;0.63;0.50;;;;;;;;;;4133021;28;20131;-56
2022/11/28 07:14:23;;;;;;;1.02;0.70;;;;;;;;;;4132580;28;20102;-47
2022/11/28 07:16:26;;;;;;;2.67;0.60;;;;;;;;;;4134717;28;20140;-45
2022/11/28 07:18:28;;;;;;;0.82;0.63;;;;;;;;;;4119129;28;20520;-49
2022/11/28 07:20:29;;;;;;;1.40;0.50;;;;;;;;;;4130551;28;20497;-50
2022/11/28 07:22:31;;;;;;;0.30;0.30;;;;;;;;;;4142343;28;20065;-49
2022/11/28 07:24:32;;;;;;;0.55;0.55;;;;;;;;;;4125284;28;20057;-43
2022/11/28 07:26:36;;;;;;;0.85;0.50;;;;;;;;;;4119463;28;20880;-48
2022/11/28 07:28:38;;;;;;;0.70;0.43;;;;;;;;;;4114381;28;20210;-48
2022/11/28 07:30:40;;;;;;;0.35;0.35;;;;;;;;;;4120559;28;20080;-53
2022/11/28 07:32:41;;;;;;;1.85;0.70;;;;;;;;;;4115061;28;20049;-47
2022/11/28 07:34:44;;;;;;;2.17;0.70;;;;;;;;;;4123545;28;20100;-45
2022/11/28 07:36:45;;;;;;;1.33;0.60;;;;;;;;;;4126718;28;20518;-47
2022/11/28 07:38:48;;;;;;;1.15;0.70;;;;;;;;;;4127388;28;20062;-51
2022/11/28 07:40:49;;;;;;;4.32;0.70;;;;;;;;;;4119555;28;20092;-47
2022/11/28 07:42:50;;;;;;;0.82;0.50;;;;;;;;;;4142079;28;20140;-52
2022/11/28 07:44:52;;;;;;;1.40;0.77;;;;;;;;;;4108872;28;20057;-53
2022/11/28 07:46:53;;;;;;;4.22;0.73;;;;;;;;;;4123857;28;20054;-51
2022/11/28 07:48:55;;;;;;;0.77;0.43;;;;;;;;;;4109378;28;20065;-53
2022/11/28 07:50:57;;;;;;;3.83;0.70;;;;;;;;;;4108369;28;20209;-48
2022/11/28 07:52:58;;;;;;;1.33;0.40;;;;;;;;;;4117910;28;20088;-52
2022/11/28 07:55:00;;;;;;;1.35;0.85;;;;;;;;;;4116142;28;20056;-56
2022/11/28 07:57:01;;;;;;;0.55;0.52;;;;;;;;;;4118476;28;20054;-46
2022/11/28 07:59:03;;;;;;;2.03;0.75;;;;;;;;;;4114926;28;20053;-47
2022/11/28 08:01:12;;;;;;;0.93;0.70;;;;;;;;;;4112776;28;20054;-49
2022/11/28 08:03:13;;;;;;;0.80;0.60;;;;;;;;;;4113950;28;20383;-51
2022/11/28 08:05:15;;;;;;;2.75;0.70;;;;;;;;;;4104360;28;20513;-47
2022/11/28 08:07:16;;;;;;;0.90;0.57;;;;;;;;;;4111063;28;20151;-47
2022/11/28 08:09:18;;;;;;;3.30;0.77;;;;;;;;;;4107673;28;20484;-46
2022/11/28 08:11:21;;;;;;;1.17;0.70;;;;;;;;;;4098356;28;21148;-45
2022/11/28 08:13:23;;;;;;;1.45;0.57;;;;;;;;;;4071207;28;20430;-47
2022/11/28 08:15:29;;;;;;;3.38;0.80;;;;;;;;;;4071754;28;20058;-45
2022/11/28 08:17:32;;;;;;;1.30;0.70;;;;;;;;;;4078080;28;21306;-47
2022/11/28 08:19:34;;;;;;;1.90;0.70;;;;;;;;;;4090231;28;20495;-49
2022/11/28 08:21:37;;;;;;;1.30;0.63;;;;;;;;;;4080996;28;20686;-45
2022/11/28 08:23:39;;;;;;;1.23;0.63;;;;;;;;;;4085828;28;20054;-46
2022/11/28 08:25:40;;;;;;;0.50;0.47;;;;;;;;;;4083844;28;20070;-47
2022/11/28 08:27:41;;;;;;;1.33;0.98;;;;;;;;;;4085427;28;20748;-51
2022/11/28 08:29:43;;;;;;;0.50;0.40;;;;;;;;;;4100473;28;21271;-44
2022/11/28 08:31:44;;;;;;;1.60;0.60;;;;;;;;;;4097368;28;21700;-48
2022/11/28 08:33:47;;;;;;;0.73;0.55;;;;;;;;;;4095835;28;20101;-47
2022/11/28 08:35:50;;;;;;;0.63;0.50;;;;;;;;;;4089511;28;20057;-49
2022/11/28 08:37:51;;;;;;;1.17;0.63;;;;;;;;;;4090969;28;20058;-47
2022/11/28 08:39:52;;;;;;;1.02;0.60;;;;;;;;;;4093230;28;20141;-44
2022/11/28 08:41:56;;;;;;;2.53;0.68;;;;;;;;;;4098964;28;20050;-46
2022/11/28 08:43:57;;;;;;;0.50;0.40;;;;;;;;;;4094644;28;20822;-47
2022/11/28 08:45:59;;;;;;;1.30;0.55;;;;;;;;;;4070315;28;20063;-46
2022/11/28 08:48:01;;;;;;;1.50;0.70;;;;;;;;;;4084947;28;21389;-47
2022/11/28 08:50:03;;;;;;;0.68;0.63;;;;;;;;;;4090052;28;20062;-47
2022/11/28 08:52:04;;;;;;;0.75;0.40;;;;;;;;;;4098073;28;20061;-49
2022/11/28 08:54:06;;;;;;;1.67;0.50;;;;;;;;;;4101002;28;21594;-48
2022/11/28 08:56:07;;;;;;;1.42;0.70;;;;;;;;;;4082024;28;20062;-46
2022/11/28 08:58:13;;;;;;;3.63;0.70;;;;;;;;;;4074716;28;20279;-47
2022/11/28 09:00:14;;;;;;;1.30;0.60;;;;;;;;;;4064418;28;20505;-50
2022/11/28 09:02:16;;;;;;;1.23;0.93;;;;;;;;;;4077953;28;20058;-45
2022/11/28 09:04:17;;;;;;;2.22;0.55;;;;;;;;;;4089293;28;20125;-52
2022/11/28 09:06:20;;;;;;;0.98;0.50;;;;;;;;;;4095727;28;20062;-47
2022/11/28 09:08:21;;;;;;;1.00;0.70;;;;;;;;;;4099349;28;20062;-50
2022/11/28 09:10:23;;;;;;;1.13;0.77;;;;;;;;;;4094841;28;20062;-47
2022/11/28 09:12:24;;;;;;;1.92;0.50;;;;;;;;;;4112291;28;20084;-45
2022/11/28 09:14:26;;;;;;;2.45;0.77;;;;;;;;;;4100921;28;20066;-45
2022/11/28 09:16:27;;;;;;;1.05;0.45;;;;;;;;;;4111946;28;20108;-46
2022/11/28 09:18:29;;;;;;;0.85;0.52;;;;;;;;;;4105280;28;20129;-46
2022/11/28 09:20:32;;;;;;;1.23;0.70;;;;;;;;;;4105897;28;20325;-48
2022/11/28 09:22:33;;;;;;;1.05;0.50;;;;;;;;;;4095026;28;20100;-63
2022/11/28 09:24:35;;;;;;;1.05;0.60;;;;;;;;;;4106251;28;20144;-54
2022/11/28 09:26:36;;;;;;;2.15;0.75;;;;;;;;;;4104063;28;20140;-57
2022/11/28 09:28:37;;;;;;;0.70;0.65;;;;;;;;;;4111152;28;20301;-56
2022/11/28 09:30:38;;;;;;;2.58;0.80;;;;;;;;;;4105752;28;20231;-57
2022/11/28 09:32:40;;;;;;;1.25;0.70;;;;;;;;;;4115242;28;20083;-52
2022/11/28 09:34:41;;;;;;;1.25;0.60;;;;;;;;;;4106353;28;20054;-56
2022/11/28 09:36:42;;;;;;;0.77;0.55;;;;;;;;;;4106047;28;20057;-52
2022/11/28 09:38:45;;;;;;;2.17;0.60;;;;;;;;;;4103909;28;20054;-52
2022/11/28 09:40:46;;;;;;;1.80;0.73;;;;;;;;;;4091137;28;20197;-56
2022/11/28 09:42:48;;;;;;;0.88;0.70;;;;;;;;;;4100717;28;20053;-55
2022/11/28 09:44:57;;;;;;;1.23;1.00;;;;;;;;;;4101750;28;20562;-55
2022/11/28 09:46:59;;;;;;;1.45;0.70;;;;;;;;;;4106081;28;20665;-48
2022/11/28 09:49:03;;;;;;;2.20;0.57;;;;;;;;;;4095882;28;20136;-46
2022/11/28 09:51:46;;;;;;;0.65;0.50;;;;;;;;;;4086735;28;20278;-49
2022/11/28 09:53:59;;;;;;;1.38;0.80;;;;;;;;;;4105888;28;20315;-47
2022/11/28 09:56:21;;;;;;;2.30;0.57;;;;;;;;;;4085709;28;20577;-51
2022/11/28 09:58:27;;;;;;;0.70;0.60;;;;;;;;;;4105866;28;20088;-47
2022/11/28 10:00:35;;;;;;;0.65;0.57;;;;;;;;;;4078901;28;20086;-48
2022/11/28 10:02:58;;;;;;;1.17;0.75;;;;;;;;;;4084737;28;20113;-48
2022/11/28 10:05:30;;;;;;;2.60;0.70;;;;;;;;;;4098438;28;20054;-47
2022/11/28 10:08:22;;;;;;;1.02;0.80;;;;;;;;;;4098512;28;20068;-46
2022/11/28 10:10:54;;;;;;;1.00;0.68;;;;;;;;;;4037664;29;20160;-48
2022/11/28 10:13:19;;;;;;;0.90;0.80;;;;;;;;;;4048074;29;20060;-48
2022/11/28 10:15:29;;;;;;;2.15;0.73;;;;;;;;;;4057164;28;20691;-47
2022/11/28 10:17:46;;;;;;;0.98;0.85;;;;;;;;;;4105571;28;20297;-53
2022/11/28 10:19:55;;;;;;;3.22;1.02;;;;;;;;;;4094812;28;20124;-50
2022/11/28 10:21:59;;;;;;;0.77;0.70;;;;;;;;;;4114433;28;21526;-52
2022/11/28 10:24:11;;;;;;;4.55;0.80;;;;;;;;;;4074027;28;20071;-49
2022/11/28 10:26:21;;;;;;;1.35;1.20;;;;;;;;;;4119404;28;20061;-47
2022/11/28 10:28:26;;;;;;;2.67;0.80;;;;;;;;;;4115955;28;20058;-50
2022/11/28 10:30:32;;;;;;;1.08;0.77;;;;;;;;;;4111074;28;20609;-52
2022/11/28 10:32:37;;;;;;;1.10;0.90;;;;;;;;;;4107800;28;20123;-53
2022/11/28 10:34:49;;;;;;;1.02;0.65;;;;;;;;;;4097320;28;20065;-42
2022/11/28 10:36:56;;;;;;;0.60;0.60;;;;;;;;;;4087411;28;20117;-42
2022/11/28 10:39:00;;;;;;;1.52;0.80;;;;;;;;;;4093822;28;20069;-43
2022/11/28 10:41:17;;;;;;;1.80;0.90;;;;;;;;;;4119221;28;20093;-45
2022/11/28 10:43:24;;;;;;;4.13;1.13;;;;;;;;;;4100587;28;20517;-45
2022/11/28 10:45:33;;;;;;;2.85;0.90;;;;;;;;;;4117491;28;20380;-43
2022/11/28 10:47:52;;;;;;;1.10;0.77;;;;;;;;;;4110560;28;20070;-42
2022/11/28 10:50:08;;;;;;;1.85;0.65;;;;;;;;;;4108924;28;20054;-43
2022/11/28 10:52:48;;;;;;;2.65;1.38;;;;;;;;;;4121126;28;20440;-44
2022/11/28 10:55:40;;;;;;;1.10;0.93;;;;;;;;;;4120706;28;20050;-44
2022/11/28 10:57:53;;;;;;;1.52;0.73;;;;;;;;;;4091502;28;20759;-46
2022/11/28 11:00:08;;;;;;;1.83;0.73;;;;;;;;;;4125877;28;20061;-40
2022/11/28 11:02:32;;;;;;;0.60;0.60;;;;;;;;;;4122561;28;20116;-40
2022/11/28 11:04:35;;;;;;;1.77;0.80;;;;;;;;;;4105768;28;20080;-44
2022/11/28 11:06:37;;;;;;;1.35;1.10;;;;;;;;;;4108686;28;20118;-48
2022/11/28 11:08:40;;;;;;;1.40;1.05;;;;;;;;;;4121540;28;20414;-46
2022/11/28 11:10:48;;;;;;;1.00;0.70;;;;;;;;;;4117448;28;20089;-46
2022/11/28 11:12:51;;;;;;;3.63;1.02;;;;;;;;;;4107528;28;20570;-48
2022/11/28 11:14:52;;;;;;;2.38;0.93;;;;;;;;;;4102065;28;20695;-46
2022/11/28 11:16:58;;;;;;;0.82;0.70;;;;;;;;;;4108683;28;20500;-47
2022/11/28 11:18:59;;;;;;;0.80;0.75;;;;;;;;;;4114751;28;20050;-45
2022/11/28 11:21:18;;;;;;;0.80;0.73;;;;;;;;;;4104084;28;20676;-47
2022/11/28 11:23:21;;;;;;;0.70;0.70;;;;;;;;;;4121844;28;20060;-47
2022/11/28 11:25:25;;;;;;;0.90;0.80;;;;;;;;;;4105907;28;20101;-46
2022/11/28 11:27:26;;;;;;;1.40;1.15;;;;;;;;;;4087959;28;20065;-45
2022/11/28 11:29:28;;;;;;;1.00;0.90;;;;;;;;;;4095230;28;20424;-47
2022/11/28 11:31:42;;;;;;;1.10;0.80;;;;;;;;;;4111148;28;20405;-48
2022/11/28 11:33:43;;;;;;;0.82;0.65;;;;;;;;;;4109569;28;20054;-49
2022/11/28 11:35:47;;;;;;;1.17;0.90;;;;;;;;;;4107958;28;20109;-46
2022/11/28 11:37:48;;;;;;;1.10;0.93;;;;;;;;;;4093030;28;20085;-46
2022/11/28 11:39:51;;;;;;;1.10;1.00;;;;;;;;;;4127779;28;20065;-46
2022/11/28 11:41:58;;;;;;;1.80;0.90;;;;;;;;;;4103250;28;20163;-46
2022/11/28 11:44:33;;;;;;;0.80;0.80;;;;;;;;;;4088331;28;20522;-50
2022/11/28 11:46:53;;;;;;;1.13;0.85;;;;;;;;;;4090231;28;20066;-44
2022/11/28 11:48:54;;;;;;;1.65;0.68;;;;;;;;;;4098694;28;20426;-45
2022/11/28 11:50:56;;;;;;;1.10;0.70;;;;;;;;;;4104419;28;20059;-46
2022/11/28 11:52:59;;;;;;;0.95;0.60;;;;;;;;;;4102179;28;20644;-46
2022/11/28 11:55:15;;;;;;;1.25;0.88;;;;;;;;;;4100088;28;20134;-46
2022/11/28 11:57:16;;;;;;;1.95;0.93;;;;;;;;;;4096817;28;20086;-46
2022/11/28 11:59:25;;;;;;;1.10;1.00;;;;;;;;;;4070356;28;20189;-47
2022/11/28 12:01:29;;;;;;;1.10;0.70;;;;;;;;;;4096491;28;20058;-46
2022/11/28 12:03:38;;;;;;;2.28;1.38;;;;;;;;;;4108538;28;20721;-46
2022/11/28 12:05:53;;;;;;;0.70;0.70;;;;;;;;;;4079882;28;20102;-44
2022/11/28 12:08:10;;;;;;;2.83;0.70;;;;;;;;;;4107852;28;20196;-42
2022/11/28 12:10:16;;;;;;;2.28;1.00;;;;;;;;;;4093885;28;20057;-41
2022/11/28 12:12:25;;;;;;;0.65;0.65;;;;;;;;;;4105989;28;20113;-39
2022/11/28 12:14:37;;;;;;;1.30;0.60;;;;;;;;;;4102251;28;20062;-40
2022/11/28 12:17:00;;;;;;;1.67;0.90;;;;;;;;;;4089767;28;20065;-38
2022/11/28 12:19:31;;;;;;;1.45;0.95;;;;;;;;;;4096750;28;20869;-41
2022/11/28 12:21:35;;;;;;;1.80;0.80;;;;;;;;;;4079967;28;22150;-39
2022/11/28 12:24:06;;;;;;;2.78;0.77;;;;;;;;;;4107452;28;20062;-42
2022/11/28 12:26:32;;;;;;;1.35;0.70;;;;;;;;;;4073412;28;20070;-41
2022/11/28 12:29:01;;;;;;;3.08;1.52;;;;;;;;;;4104353;28;20055;-40
2022/11/28 12:31:28;;;;;;;1.52;0.80;;;;;;;;;;4103309;28;20062;-42
2022/11/28 12:33:51;;;;;;;1.08;0.98;;;;;;;;;;4104849;28;20105;-41
2022/11/28 12:36:29;;;;;;;3.55;1.00;;;;;;;;;;4099758;28;20137;-41
2022/11/28 12:39:12;;;;;;;1.63;0.98;;;;;;;;;;4098134;28;20177;-45
2022/11/28 12:41:45;;;;;;;1.33;1.00;;;;;;;;;;4092146;28;20599;-42